Time;durP1;ratioP1;P1;durP2;ratioP2;P2;SDS_P1;SDS_P2;PMS_P1;PMS_P2;Temp;Humidity;BMP_temperature;BMP_pressure;BME280_temperature;BME280_humidity;BME280_pressure;Samples;Min_cycle;Max_cycle;Signal;HPM_P1;HPM_P2
2023/08/07 00:01:47;;;;;;;1.42;0.70;;;;;;;20.84;100.00;99340.38;4999401;28;20040;-76
2023/08/07 00:04:12;;;;;;;1.33;0.50;;;;;;;21.16;100.00;99400.72;5006501;28;20077;-77
2023/08/07 00:06:38;;;;;;;0.95;0.50;;;;;;;20.37;100.00;99305.81;5006339;28;20038;-77
2023/08/07 00:09:03;;;;;;;1.92;1.17;;;;;;;20.90;100.00;99413.81;4997836;28;20034;-78
2023/08/07 00:11:29;;;;;;;1.63;0.73;;;;;;;21.00;100.00;99419.44;5007784;28;20033;-77
2023/08/07 00:13:55;;;;;;;1.38;0.75;;;;;;;20.89;100.00;99420.09;5005450;28;20034;-76
2023/08/07 00:16:20;;;;;;;1.17;0.88;;;;;;;20.28;100.00;99339.19;5004901;28;20053;-76
2023/08/07 00:18:46;;;;;;;1.38;0.50;;;;;;;20.17;100.00;99333.59;5005308;28;20108;-78
2023/08/07 00:21:11;;;;;;;2.05;0.65;;;;;;;20.09;100.00;99306.53;5006878;28;20045;-76
2023/08/07 00:23:37;;;;;;;1.75;0.77;;;;;;;20.66;100.00;99416.94;5007280;28;20049;-77
2023/08/07 00:26:03;;;;;;;0.60;0.40;;;;;;;20.22;100.00;99356.38;4999425;28;20046;-78
2023/08/07 00:28:29;;;;;;;0.28;0.25;;;;;;;19.93;100.00;99309.22;5005690;28;20050;-76
2023/08/07 00:30:55;;;;;;;1.27;0.40;;;;;;;20.08;100.00;99331.47;5006581;28;20482;-79
2023/08/07 00:33:20;;;;;;;1.40;0.32;;;;;;;19.87;100.00;99310.41;5003619;28;20038;-77
2023/08/07 00:35:46;;;;;;;0.15;0.15;;;;;;;20.28;100.00;99402.28;4994772;28;20394;-76
2023/08/07 00:38:11;;;;;;;0.65;0.30;;;;;;;19.66;100.00;99319.56;5006268;28;20034;-76
2023/08/07 00:40:38;;;;;;;0.65;0.50;;;;;;;20.41;100.00;99428.13;5006109;28;20038;-76
2023/08/07 00:43:04;;;;;;;0.68;0.55;;;;;;;19.92;100.00;99318.16;5001836;28;20050;-77
2023/08/07 00:45:34;;;;;;;0.65;0.40;;;;;;;20.10;100.00;99382.84;5004802;28;20431;-76
2023/08/07 00:48:00;;;;;;;1.10;0.75;;;;;;;19.79;100.00;99344.63;5006017;28;20037;-75
2023/08/07 00:50:26;;;;;;;2.42;0.55;;;;;;;20.23;100.00;99440.69;5006732;28;20072;-77
2023/08/07 00:52:52;;;;;;;2.40;0.95;;;;;;;19.56;100.00;99325.41;5002112;28;20049;-75
2023/08/07 00:55:18;;;;;;;1.30;0.70;;;;;;;19.39;100.00;99336.09;5004932;28;20042;-76
2023/08/07 00:57:43;;;;;;;3.78;0.55;;;;;;;19.95;100.00;99422.69;5005973;28;20153;-75
2023/08/07 01:00:10;;;;;;;1.10;0.55;;;;;;;19.34;100.00;99354.13;5005904;28;20045;-78
2023/08/07 01:02:35;;;;;;;1.30;0.60;;;;;;;19.39;100.00;99354.72;5000618;28;20037;-77
2023/08/07 01:05:01;;;;;;;6.35;1.10;;;;;;;19.21;100.00;99347.72;5005449;28;20034;-77
2023/08/07 01:07:27;;;;;;;0.30;0.28;;;;;;;19.35;100.00;99361.13;5009178;28;20567;-76
2023/08/07 01:09:53;;;;;;;0.55;0.52;;;;;;;19.35;100.00;99358.47;5009437;28;20085;-78
2023/08/07 01:12:23;;;;;;;1.42;0.50;;;;;;;19.74;100.00;99448.69;5008641;28;20482;-77
2023/08/07 01:14:51;;;;;;;1.00;0.38;;;;;;;19.81;100.00;99468.69;5003220;28;20438;-76
2023/08/07 01:17:20;;;;;;;2.13;0.75;;;;;;;19.24;100.00;99363.50;5010260;28;20034;-76
2023/08/07 01:19:47;;;;;;;1.85;1.15;;;;;;;19.09;100.00;99363.38;5005327;28;20043;-76
2023/08/07 01:22:17;;;;;;;1.13;0.30;;;;;;;19.65;100.00;99446.47;5009889;28;20046;-76
2023/08/07 01:24:45;;;;;;;1.70;0.52;;;;;;;19.83;100.00;99481.94;5004803;28;20141;-77
2023/08/07 01:27:17;;;;;;;1.63;0.77;;;;;;;19.75;100.00;99489.47;5009381;28;20044;-78
2023/08/07 01:30:32;;;;;;;1.48;0.50;;;;;;;19.69;100.00;99477.34;5008693;28;20040;-76
2023/08/07 01:33:23;;;;;;;0.85;0.75;;;;;;;19.48;100.00;99494.38;4972564;28;20057;-74
2023/08/07 01:35:53;;;;;;;1.92;0.77;;;;;;;18.89;100.00;99392.78;5000553;28;20101;-76
2023/08/07 01:38:22;;;;;;;1.42;0.88;;;;;;;19.00;100.00;99400.22;5007408;28;20030;-76
2023/08/07 01:40:48;;;;;;;0.52;0.40;;;;;;;18.92;100.00;99400.59;5009344;28;20126;-75
2023/08/07 01:43:14;;;;;;;0.90;0.40;;;;;;;19.39;100.00;99506.38;5000740;28;20039;-77
2023/08/07 01:45:39;;;;;;;1.38;0.50;;;;;;;19.57;100.00;99501.88;4996510;28;20557;-75
2023/08/07 01:48:05;;;;;;;0.63;0.47;;;;;;;19.21;100.00;99494.84;5007169;28;20037;-76
2023/08/07 01:50:31;;;;;;;1.02;0.65;;;;;;;18.90;100.00;99469.78;5004358;28;20073;-76
2023/08/07 01:52:56;;;;;;;1.00;0.63;;;;;;;18.72;100.00;99423.69;5001081;28;20050;-76
2023/08/07 01:55:22;;;;;;;1.02;0.52;;;;;;;18.52;100.00;99418.50;5004672;28;20145;-75
2023/08/07 01:57:48;;;;;;;1.30;0.60;;;;;;;18.85;100.00;99498.41;4999380;28;20076;-77
2023/08/07 02:00:13;;;;;;;0.70;0.47;;;;;;;19.03;100.00;99530.34;5009327;28;20030;-76
2023/08/07 02:02:39;;;;;;;1.10;0.45;;;;;;;18.97;100.00;99532.38;5009480;28;20458;-74
2023/08/07 02:05:05;;;;;;;0.82;0.47;;;;;;;19.04;100.00;99524.09;5001528;28;20062;-75
2023/08/07 02:07:30;;;;;;;0.50;0.30;;;;;;;18.70;100.00;99484.00;5000747;28;20034;-75
2023/08/07 02:09:57;;;;;;;0.85;0.40;;;;;;;18.87;100.00;99525.78;5005771;28;20151;-77
2023/08/07 02:12:23;;;;;;;0.73;0.32;;;;;;;18.08;100.00;99408.22;5008138;28;20133;-76
2023/08/07 02:14:48;;;;;;;0.90;0.60;;;;;;;18.11;100.00;99423.97;5007219;28;20053;-75
2023/08/07 02:17:14;;;;;;;1.30;0.40;;;;;;;18.67;100.00;99512.56;5008996;28;20030;-75
2023/08/07 02:19:39;;;;;;;0.95;0.40;;;;;;;18.83;100.00;99532.16;5008431;28;20126;-78
2023/08/07 02:22:05;;;;;;;1.77;0.75;;;;;;;18.19;100.00;99399.72;5008495;28;20402;-77
2023/08/07 02:24:31;;;;;;;0.47;0.20;;;;;;;17.80;100.00;99367.00;5006706;28;20038;-78
2023/08/07 02:26:56;;;;;;;0.65;0.40;;;;;;;18.51;100.00;99505.28;5008608;28;20805;-77
2023/08/07 02:29:22;;;;;;;0.43;0.38;;;;;;;18.11;100.00;99448.72;5008904;28;20389;-76
2023/08/07 02:31:48;;;;;;;0.20;0.20;;;;;;;18.00;100.00;99419.16;5003410;28;20066;-76
2023/08/07 02:34:13;;;;;;;0.77;0.40;;;;;;;18.00;100.00;99432.44;5004909;28;20103;-76
2023/08/07 02:36:38;;;;;;;0.68;0.60;;;;;;;18.66;100.00;99529.41;5006544;28;20045;-76
2023/08/07 02:39:04;;;;;;;0.32;0.20;;;;;;;18.52;100.00;99554.84;5008604;28;20022;-76
2023/08/07 02:41:31;;;;;;;0.20;0.20;;;;;;;18.18;100.00;99461.75;4995242;28;20049;-76
2023/08/07 02:43:56;;;;;;;0.95;0.40;;;;;;;18.66;100.00;99546.25;5006716;28;20044;-75
2023/08/07 02:46:22;;;;;;;0.80;0.35;;;;;;;18.28;100.00;99524.97;5008155;28;20058;-76
2023/08/07 02:48:47;;;;;;;0.57;0.30;;;;;;;18.30;100.00;99523.09;5008303;28;20367;-76
2023/08/07 02:51:12;;;;;;;0.38;0.35;;;;;;;18.31;100.00;99561.16;5002568;28;20135;-77
2023/08/07 02:53:39;;;;;;;0.20;0.20;;;;;;;18.56;100.00;99563.53;5007251;28;20026;-75
2023/08/07 02:56:04;;;;;;;0.80;0.50;;;;;;;17.78;100.00;99463.53;5007829;28;20034;-75
2023/08/07 02:58:30;;;;;;;0.77;0.40;;;;;;;18.39;100.00;99569.63;5004876;28;20053;-78
2023/08/07 03:00:56;;;;;;;0.20;0.20;;;;;;;17.90;100.00;99526.69;5004913;28;20042;-77
2023/08/07 03:03:21;;;;;;;0.45;0.30;;;;;;;18.26;100.00;99582.63;5007617;28;20034;-75
2023/08/07 03:05:51;;;;;;;0.40;0.40;;;;;;;17.61;100.00;99457.19;5005877;28;20750;-77
2023/08/07 03:08:17;;;;;;;0.93;0.30;;;;;;;18.20;100.00;99585.53;4996613;28;20092;-76
2023/08/07 03:10:49;;;;;;;0.35;0.20;;;;;;;18.42;100.00;99589.88;5007724;28;20041;-77
2023/08/07 03:13:14;;;;;;;0.35;0.30;;;;;;;18.01;100.00;99561.59;5004040;28;20232;-76
2023/08/07 03:15:40;;;;;;;2.03;0.32;;;;;;;17.70;100.00;99516.94;5007258;28;20545;-75
2023/08/07 03:18:05;;;;;;;0.20;0.20;;;;;;;17.44;100.00;99503.03;5004839;28;20034;-76
2023/08/07 03:20:31;;;;;;;0.30;0.20;;;;;;;18.16;100.00;99607.84;5007328;28;20053;-76
2023/08/07 03:22:56;;;;;;;0.30;0.20;;;;;;;17.44;100.00;99492.41;5007640;28;20406;-76
2023/08/07 03:25:22;;;;;;;0.10;0.10;;;;;;;17.48;100.00;99485.16;5005450;28;20445;-76
2023/08/07 03:27:47;;;;;;;0.20;0.20;;;;;;;18.34;100.00;99612.34;5001120;28;20030;-78
2023/08/07 03:30:13;;;;;;;1.05;0.55;;;;;;;18.18;100.00;99587.41;5005324;28;20475;-78
2023/08/07 03:32:38;;;;;;;0.38;0.20;;;;;;;17.76;100.00;99558.25;5007779;28;20109;-77
2023/08/07 03:35:04;;;;;;;0.35;0.20;;;;;;;18.06;100.00;99601.22;5005548;28;20042;-80
2023/08/07 03:37:30;;;;;;;0.50;0.30;;;;;;;17.97;100.00;99593.66;5004712;28;20120;-75
2023/08/07 03:39:55;;;;;;;0.95;0.22;;;;;;;17.55;100.00;99507.00;5007286;28;20045;-74
2023/08/07 03:42:20;;;;;;;0.35;0.32;;;;;;;17.62;100.00;99532.31;4994851;28;20049;-75
2023/08/07 03:44:46;;;;;;;0.82;0.50;;;;;;;18.05;100.00;99594.16;5004585;28;20489;-77
2023/08/07 03:47:11;;;;;;;0.57;0.30;;;;;;;18.05;100.00;99588.84;5006669;28;20041;-77
2023/08/07 03:49:37;;;;;;;1.20;0.45;;;;;;;17.87;100.00;99593.19;5003646;28;20034;-77
2023/08/07 03:52:03;;;;;;;0.93;0.38;;;;;;;17.58;100.00;99522.75;5004613;28;20057;-76
2023/08/07 03:54:28;;;;;;;1.08;0.43;;;;;;;17.98;100.00;99619.25;5003876;28;20038;-77
2023/08/07 03:56:54;;;;;;;0.65;0.40;;;;;;;18.02;100.00;99619.06;5006837;28;20066;-75
2023/08/07 03:59:19;;;;;;;1.73;0.52;;;;;;;18.06;100.00;99610.03;5006996;28;20034;-76
2023/08/07 04:01:45;;;;;;;0.60;0.32;;;;;;;18.16;100.00;99626.44;5001426;28;20030;-75
2023/08/07 04:04:10;;;;;;;4.18;0.73;;;;;;;17.55;100.00;99504.34;5003655;28;20107;-75
2023/08/07 04:06:35;;;;;;;0.80;0.50;;;;;;;18.03;100.00;99588.94;5002520;28;20132;-75
2023/08/07 04:09:03;;;;;;;1.35;0.77;;;;;;;17.53;100.00;99515.00;5007503;28;20068;-76
2023/08/07 04:11:29;;;;;;;0.60;0.40;;;;;;;18.05;100.00;99615.41;5005165;28;20120;-75
2023/08/07 04:13:54;;;;;;;1.70;0.77;;;;;;;17.36;100.00;99529.00;5006517;28;20077;-75
2023/08/07 04:16:20;;;;;;;1.38;0.40;;;;;;;18.07;100.00;99622.38;5005538;28;20500;-77
2023/08/07 04:18:45;;;;;;;1.10;0.80;;;;;;;17.86;100.00;99568.47;5006267;28;20367;-76
2023/08/07 04:21:11;;;;;;;1.48;0.95;;;;;;;18.02;100.00;99613.75;5032741;28;20707;-77
2023/08/07 04:23:36;;;;;;;1.90;0.80;;;;;;;17.48;100.00;99519.66;5006669;28;20026;-76
2023/08/07 04:26:03;;;;;;;1.38;1.02;;;;;;;18.06;100.00;99633.94;5006579;28;20033;-76
2023/08/07 04:28:32;;;;;;;0.77;0.68;;;;;;;18.24;100.00;99636.69;5004261;28;20065;-76
2023/08/07 04:30:57;;;;;;;1.38;0.88;;;;;;;18.23;100.00;99622.56;5005865;28;20042;-76
2023/08/07 04:33:23;;;;;;;1.73;1.05;;;;;;;17.92;100.00;99565.50;5004492;28;20125;-75
2023/08/07 04:35:48;;;;;;;1.33;0.75;;;;;;;18.33;100.00;99633.66;5004081;28;20050;-78
2023/08/07 04:38:14;;;;;;;2.75;1.35;;;;;;;18.05;100.00;99605.69;5005627;28;20543;-77
2023/08/07 04:40:50;;;;;;;0.65;0.65;;;;;;;17.57;100.00;99506.00;5006407;28;20038;-76
2023/08/07 04:43:16;;;;;;;2.75;1.02;;;;;;;18.46;100.00;99634.81;5003975;28;20042;-78
2023/08/07 04:45:42;;;;;;;1.75;1.23;;;;;;;17.59;100.00;99533.31;5006148;28;20041;-77
2023/08/07 04:48:08;;;;;;;1.95;1.10;;;;;;;18.51;100.00;99643.44;5004135;28;20042;-76
2023/08/07 04:50:34;;;;;;;1.27;0.82;;;;;;;18.06;100.00;99551.63;5001310;28;20041;-76
2023/08/07 04:52:59;;;;;;;1.92;1.23;;;;;;;17.89;100.00;99528.50;5006040;28;20148;-76
2023/08/07 04:55:25;;;;;;;1.60;1.25;;;;;;;17.90;100.00;99521.41;5003827;28;20393;-77
2023/08/07 04:57:54;;;;;;;1.90;0.70;;;;;;;18.04;100.00;99524.28;5003348;28;20041;-76
2023/08/07 05:00:20;;;;;;;1.83;0.90;;;;;;;18.02;100.00;99522.63;5005764;28;20034;-76
2023/08/07 05:02:45;;;;;;;1.02;0.80;;;;;;;18.82;100.00;99652.72;5005835;28;20088;-75
2023/08/07 05:05:11;;;;;;;1.90;1.35;;;;;;;18.71;100.00;99623.94;4997334;28;20045;-76
2023/08/07 05:07:36;;;;;;;2.47;0.95;;;;;;;18.60;100.00;99590.84;4999910;28;20049;-76
2023/08/07 05:10:02;;;;;;;1.05;0.65;;;;;;;18.95;100.00;99651.22;5006104;28;20069;-77
2023/08/07 05:12:28;;;;;;;5.00;0.80;;;;;;;19.13;100.00;99685.88;5004820;28;20052;-77
2023/08/07 05:14:54;;;;;;;2.35;1.02;;;;;;;19.04;100.00;99668.53;5036386;28;20046;-77
2023/08/07 05:17:19;;;;;;;1.60;1.17;;;;;;;18.63;100.00;99567.63;5005608;28;20083;-76
2023/08/07 05:19:45;;;;;;;0.65;0.40;;;;;;;18.99;100.00;99651.94;5005508;28;20054;-75
2023/08/07 05:22:10;;;;;;;1.73;0.98;;;;;;;19.52;100.00;99664.44;5005657;28;20096;-75
2023/08/07 05:24:38;;;;;;;0.93;0.45;;;;;;;19.88;100.00;99641.44;4999603;28;20037;-78
2023/08/07 05:27:08;;;;;;;1.98;0.70;;;;;;;20.21;100.00;99606.88;5003868;28;20026;-74
2023/08/07 05:29:37;;;;;;;0.82;0.65;;;;;;;21.14;100.00;99682.75;5034290;28;20813;-75
2023/08/07 05:32:03;;;;;;;2.30;0.50;;;;;;;20.58;100.00;99627.13;5003764;28;20038;-76
2023/08/07 05:34:29;;;;;;;9.15;1.23;;;;;;;21.34;100.00;99671.84;5005188;28;20581;-75
2023/08/07 05:36:54;;;;;;;3.92;2.03;;;;;;;21.93;100.00;99661.34;5002259;28;20033;-75
2023/08/07 05:39:19;;;;;;;1.67;1.08;;;;;;;23.14;100.00;99672.69;5005116;28;20041;-75
2023/08/07 05:41:45;;;;;;;1.73;1.63;;;;;;;22.47;100.00;99575.28;5005071;28;20037;-74
2023/08/07 05:44:10;;;;;;;2.10;0.60;;;;;;;22.52;100.00;99571.38;5001415;28;20556;-76
2023/08/07 05:46:36;;;;;;;1.38;0.85;;;;;;;24.07;100.00;99688.97;4994594;28;20047;-77
2023/08/07 05:49:02;;;;;;;8.57;5.18;;;;;;;24.34;100.00;99653.16;5008025;28;20101;-76
2023/08/07 05:51:27;;;;;;;1.25;0.65;;;;;;;24.20;100.00;99592.47;5002396;28;20038;-75
2023/08/07 05:53:52;;;;;;;1.77;1.00;;;;;;;24.80;100.00;99671.44;5008519;28;20062;-75
2023/08/07 05:56:18;;;;;;;1.60;0.60;;;;;;;23.82;100.00;99584.41;5006750;28;20036;-75
2023/08/07 05:58:44;;;;;;;1.73;1.05;;;;;;;24.28;100.00;99672.34;5001567;28;20528;-77
2023/08/07 06:01:09;;;;;;;2.17;0.77;;;;;;;24.36;100.00;99678.91;5007669;28;20092;-77
2023/08/07 06:03:35;;;;;;;1.85;0.68;;;;;;;23.67;100.00;99581.75;5008491;28;20041;-77
2023/08/07 06:06:01;;;;;;;3.67;0.90;;;;;;;24.02;100.00;99689.28;5004678;28;20045;-74
2023/08/07 06:08:26;;;;;;;1.02;0.60;;;;;;;24.61;100.00;99688.84;5006283;28;20034;-76
2023/08/07 06:10:53;;;;;;;0.70;0.40;;;;;;;23.68;100.00;99646.91;5007781;28;20053;-77
2023/08/07 06:13:18;;;;;;;2.35;1.15;;;;;;;23.78;100.00;99667.63;5008546;28;20033;-78
2023/08/07 06:15:44;;;;;;;0.70;0.47;;;;;;;23.73;100.00;99695.69;5008405;28;20137;-77
2023/08/07 06:18:09;;;;;;;0.75;0.40;;;;;;;24.87;100.00;99720.19;5005638;28;20045;-75
2023/08/07 06:20:35;;;;;;;0.50;0.30;;;;;;;24.15;100.00;99650.91;5008969;28;20022;-76
2023/08/07 06:23:01;;;;;;;1.15;0.68;;;;;;;23.93;100.00;99641.66;5021297;28;20046;-76
2023/08/07 06:25:27;;;;;;;1.30;0.75;;;;;;;24.71;100.00;99712.34;5005862;28;20426;-75
2023/08/07 06:27:52;;;;;;;0.38;0.30;;;;;;;25.44;98.14;99741.16;5002592;28;20046;-77
2023/08/07 06:30:18;;;;;;;1.42;0.40;;;;;;;25.19;98.98;99683.88;5008468;28;20029;-76
2023/08/07 06:32:43;;;;;;;1.83;1.23;;;;;;;24.95;99.45;99741.94;5009475;28;20029;-76
2023/08/07 06:35:09;;;;;;;0.88;0.50;;;;;;;25.19;97.29;99712.53;5004172;28;20038;-77
2023/08/07 06:37:35;;;;;;;0.45;0.30;;;;;;;25.18;96.26;99719.72;5037797;28;20045;-76
2023/08/07 06:40:01;;;;;;;1.17;0.52;;;;;;;24.17;99.16;99631.06;5008158;28;20029;-77
2023/08/07 06:42:26;;;;;;;0.90;0.75;;;;;;;24.04;100.00;99621.28;5003500;28;20050;-76
2023/08/07 06:44:52;;;;;;;0.70;0.43;;;;;;;24.66;99.39;99650.94;5007470;28;20032;-76
2023/08/07 06:47:17;;;;;;;0.43;0.40;;;;;;;24.87;94.58;99642.34;5008612;28;20418;-76
2023/08/07 06:49:43;;;;;;;1.73;0.47;;;;;;;25.17;92.25;99668.78;5007091;28;20041;-78
2023/08/07 06:52:08;;;;;;;1.15;0.60;;;;;;;24.32;100.00;99712.25;5003708;28;20022;-76
2023/08/07 06:54:34;;;;;;;0.35;0.30;;;;;;;24.80;95.01;99733.16;5004997;28;20121;-77
2023/08/07 06:57:00;;;;;;;0.40;0.38;;;;;;;24.50;92.75;99658.34;5007659;28;20037;-76
2023/08/07 06:59:25;;;;;;;0.65;0.43;;;;;;;24.69;95.46;99672.19;5007292;28;20465;-75
2023/08/07 07:01:51;;;;;;;0.77;0.30;;;;;;;24.55;95.68;99642.78;5000463;28;20046;-76
2023/08/07 07:04:17;;;;;;;0.82;0.45;;;;;;;24.79;91.85;99664.34;5005333;28;20034;-76
2023/08/07 07:06:42;;;;;;;2.10;1.15;;;;;;;24.55;93.46;99732.16;5006107;28;20068;-76
2023/08/07 07:09:07;;;;;;;0.40;0.28;;;;;;;24.73;91.93;99772.13;5006959;28;20554;-75
2023/08/07 07:11:34;;;;;;;0.70;0.30;;;;;;;24.78;91.46;99744.00;5005048;28;20033;-76
2023/08/07 07:14:00;;;;;;;1.25;0.30;;;;;;;23.82;92.20;99696.94;5006619;28;20037;-75
2023/08/07 07:16:26;;;;;;;1.83;0.50;;;;;;;24.38;91.55;99749.41;5007126;28;20431;-79
2023/08/07 07:18:52;;;;;;;0.35;0.30;;;;;;;24.42;93.82;99764.31;5006942;28;20046;-78
2023/08/07 07:21:18;;;;;;;1.23;0.70;;;;;;;24.35;94.29;99760.34;5034170;28;20647;-76
2023/08/07 07:23:43;;;;;;;1.60;0.52;;;;;;;24.43;90.52;99759.81;5007714;28;20177;-76
2023/08/07 07:26:09;;;;;;;1.50;0.90;;;;;;;23.62;91.29;99671.41;5006728;28;20041;-79
2023/08/07 07:28:34;;;;;;;0.70;0.40;;;;;;;24.00;92.75;99754.66;5002935;28;20474;-77
2023/08/07 07:31:00;;;;;;;0.40;0.32;;;;;;;24.07;90.94;99747.03;5013855;28;20491;-77
2023/08/07 07:33:25;;;;;;;0.30;0.30;;;;;;;24.14;90.13;99762.66;5006625;28;20077;-74
2023/08/07 07:35:51;;;;;;;0.40;0.30;;;;;;;23.99;92.78;99750.25;5005109;28;20421;-75
2023/08/07 07:38:16;;;;;;;0.77;0.45;;;;;;;24.19;89.03;99771.22;5006080;28;20824;-77
2023/08/07 07:40:42;;;;;;;1.00;0.30;;;;;;;24.21;87.46;99771.13;5006054;28;20093;-76
2023/08/07 07:43:07;;;;;;;0.50;0.20;;;;;;;23.88;88.16;99753.66;5005139;28;20080;-76
2023/08/07 07:45:36;;;;;;;0.55;0.40;;;;;;;23.96;87.89;99769.22;5000101;28;20134;-76
2023/08/07 07:48:02;;;;;;;0.52;0.30;;;;;;;23.38;87.96;99662.19;4993077;28;20084;-76
2023/08/07 07:50:28;;;;;;;1.83;0.40;;;;;;;24.16;84.21;99755.34;5005143;28;20034;-77
2023/08/07 07:52:54;;;;;;;0.30;0.20;;;;;;;23.46;84.78;99661.72;5006738;28;20041;-76
2023/08/07 07:55:19;;;;;;;0.43;0.43;;;;;;;24.12;85.80;99748.47;4997757;28;20081;-75
2023/08/07 07:57:45;;;;;;;0.38;0.30;;;;;;;24.29;84.84;99741.13;5005954;28;20040;-76
2023/08/07 08:00:12;;;;;;;2.55;0.85;;;;;;;24.47;83.49;99781.94;5006820;28;20120;-75
2023/08/07 08:02:40;;;;;;;1.20;0.50;;;;;;;23.60;84.58;99683.09;5006496;28;20117;-75
2023/08/07 08:05:07;;;;;;;0.20;0.20;;;;;;;24.17;85.75;99772.31;4998500;28;20049;-75
2023/08/07 08:07:34;;;;;;;0.47;0.30;;;;;;;23.93;84.47;99703.28;5000570;28;20506;-78
2023/08/07 08:10:00;;;;;;;0.75;0.50;;;;;;;24.05;83.06;99684.66;5006216;28;20056;-74
2023/08/07 08:12:26;;;;;;;0.52;0.15;;;;;;;23.97;81.40;99680.66;5005075;28;20452;-77
2023/08/07 08:14:51;;;;;;;0.98;0.60;;;;;;;24.49;78.98;99775.53;5004936;28;20026;-76
2023/08/07 08:17:17;;;;;;;1.70;0.43;;;;;;;24.17;78.13;99732.94;5006033;28;20042;-74
2023/08/07 08:19:42;;;;;;;1.65;0.45;;;;;;;24.12;75.37;99686.81;5006096;28;20038;-78
2023/08/07 08:22:08;;;;;;;0.10;0.10;;;;;;;24.21;72.60;99679.97;5005773;28;20643;-77
2023/08/07 08:24:33;;;;;;;1.48;1.30;;;;;;;24.31;71.55;99691.78;4999511;28;20065;-77
2023/08/07 08:26:59;;;;;;;0.80;0.65;;;;;;;24.57;68.13;99686.47;5005399;28;20026;-75
2023/08/07 08:29:25;;;;;;;0.73;0.50;;;;;;;25.03;66.40;99769.13;5005899;28;20085;-76
2023/08/07 08:31:53;;;;;;;0.30;0.30;;;;;;;25.25;65.55;99763.97;5002803;28;20435;-76
2023/08/07 08:34:18;;;;;;;0.60;0.32;;;;;;;25.70;65.19;99785.78;5003943;28;20037;-78
2023/08/07 08:36:44;;;;;;;0.30;0.20;;;;;;;25.10;63.65;99689.88;5004910;28;20486;-77
2023/08/07 08:39:09;;;;;;;0.28;0.20;;;;;;;25.85;62.85;99788.34;5005865;28;20038;-76
2023/08/07 08:41:35;;;;;;;0.77;0.40;;;;;;;25.55;60.39;99753.81;5003980;28;20041;-78
2023/08/07 08:44:02;;;;;;;0.32;0.28;;;;;;;25.64;59.02;99720.91;5002255;28;20058;-78
2023/08/07 08:46:29;;;;;;;0.20;0.20;;;;;;;26.17;57.68;99715.19;5003999;28;20484;-77
2023/08/07 08:49:00;;;;;;;0.15;0.15;;;;;;;26.40;57.24;99781.53;5005628;28;20077;-76
2023/08/07 08:51:26;;;;;;;1.25;0.75;;;;;;;26.23;57.60;99776.59;5004281;28;20038;-76
2023/08/07 08:53:53;;;;;;;1.85;0.43;;;;;;;26.63;56.63;99766.34;5005712;28;20481;-75
2023/08/07 08:56:19;;;;;;;0.32;0.30;;;;;;;26.20;56.79;99733.75;5005237;28;20451;-76
2023/08/07 08:58:46;;;;;;;0.45;0.30;;;;;;;26.62;56.67;99709.94;5003954;28;20067;-75
2023/08/07 09:01:12;;;;;;;0.43;0.30;;;;;;;27.14;55.65;99735.44;5005131;28;20065;-79
2023/08/07 09:03:37;;;;;;;2.55;0.82;;;;;;;27.44;54.43;99785.16;5005776;28;20396;-76
2023/08/07 09:06:06;;;;;;;0.40;0.22;;;;;;;27.30;53.40;99714.41;5002752;28;20537;-76
2023/08/07 09:08:33;;;;;;;0.40;0.30;;;;;;;27.66;53.60;99804.03;5002773;28;20026;-78
2023/08/07 09:10:59;;;;;;;0.50;0.50;;;;;;;27.30;51.77;99802.44;5005383;28;20042;-75
2023/08/07 09:13:28;;;;;;;0.17;0.17;;;;;;;27.84;49.94;99782.84;5005005;28;20054;-77
2023/08/07 09:15:54;;;;;;;0.20;0.20;;;;;;;28.50;49.59;99777.34;5005515;28;20046;-74
2023/08/07 09:18:22;;;;;;;0.20;0.20;;;;;;;28.52;48.32;99796.13;5003402;28;20397;-79
2023/08/07 09:20:48;;;;;;;0.30;0.30;;;;;;;28.36;47.72;99718.25;5005044;28;20052;-76
2023/08/07 09:23:16;;;;;;;0.13;0.13;;;;;;;28.15;46.72;99726.34;5007121;28;20505;-75
2023/08/07 09:25:42;;;;;;;0.30;0.30;;;;;;;28.23;45.84;99785.03;5003671;28;20058;-77
2023/08/07 09:28:09;;;;;;;1.13;0.20;;;;;;;28.17;45.57;99771.09;5005802;28;20050;-76
2023/08/07 09:30:39;;;;;;;1.00;0.70;;;;;;;28.68;43.58;99756.03;5007800;28;20026;-76
2023/08/07 09:33:05;;;;;;;0.45;0.25;;;;;;;28.24;44.30;99748.97;5009096;28;20484;-79
2023/08/07 09:35:33;;;;;;;1.38;0.75;;;;;;;29.07;44.18;99783.28;5006292;28;21011;-76
2023/08/07 09:37:58;;;;;;;3.92;0.47;;;;;;;28.25;43.79;99772.28;5005353;28;20042;-78
2023/08/07 09:40:24;;;;;;;0.82;0.43;;;;;;;29.19;43.71;99797.56;5009511;28;20069;-76
2023/08/07 09:42:54;;;;;;;0.80;0.63;;;;;;;29.45;42.23;99784.44;5006864;28;20038;-77
2023/08/07 09:45:21;;;;;;;0.40;0.30;;;;;;;30.11;43.49;99796.56;5004733;28;20038;-77
2023/08/07 09:47:47;;;;;;;1.83;0.25;;;;;;;28.98;42.29;99728.16;5009690;28;20026;-76
2023/08/07 09:50:19;;;;;;;0.20;0.20;;;;;;;29.92;42.22;99708.13;5009332;28;20441;-77
2023/08/07 09:52:48;;;;;;;0.38;0.38;;;;;;;29.14;41.70;99768.22;5003731;28;20116;-76
2023/08/07 09:55:15;;;;;;;0.40;0.20;;;;;;;29.31;41.82;99728.03;5008743;28;20470;-76
2023/08/07 09:57:43;;;;;;;0.20;0.20;;;;;;;30.34;40.67;99776.38;5008218;28;20038;-76
2023/08/07 10:00:16;;;;;;;0.25;0.20;;;;;;;30.26;40.63;99779.81;5008867;28;20167;-75
2023/08/07 10:02:42;;;;;;;0.55;0.43;;;;;;;30.07;41.33;99723.81;5000613;28;20057;-75
2023/08/07 10:05:10;;;;;;;0.30;0.20;;;;;;;31.07;40.39;99802.97;5009173;28;20065;-77
2023/08/07 10:07:38;;;;;;;0.22;0.20;;;;;;;30.56;40.38;99729.22;5035255;28;20045;-76
2023/08/07 10:10:04;;;;;;;0.20;0.20;;;;;;;30.18;40.19;99813.97;5005056;28;20038;-76
2023/08/07 10:12:31;;;;;;;0.30;0.30;;;;;;;29.11;40.45;99733.38;5004889;28;20478;-76
2023/08/07 10:14:58;;;;;;;1.55;0.52;;;;;;;29.91;39.68;99709.13;5008093;28;20030;-76
2023/08/07 10:17:24;;;;;;;0.30;0.30;;;;;;;31.57;39.57;99796.41;5008694;28;20109;-76
2023/08/07 10:19:51;;;;;;;0.75;0.75;;;;;;;31.25;39.24;99811.19;5003953;28;20133;-77
2023/08/07 10:22:19;;;;;;;0.28;0.28;;;;;;;30.92;38.42;99808.00;5007942;28;20097;-76
2023/08/07 10:24:50;;;;;;;0.17;0.17;;;;;;;29.79;39.81;99741.72;5006511;28;20049;-77
2023/08/07 10:27:18;;;;;;;0.35;0.20;;;;;;;30.27;39.85;99773.41;5007976;28;20480;-76
2023/08/07 10:29:46;;;;;;;0.50;0.40;;;;;;;30.68;39.28;99774.09;5007044;28;20481;-76
2023/08/07 10:32:12;;;;;;;0.20;0.20;;;;;;;31.38;39.52;99746.66;5008399;28;20056;-76
2023/08/07 10:34:38;;;;;;;2.55;0.50;;;;;;;30.43;38.95;99709.69;5007096;28;20751;-76
2023/08/07 10:37:07;;;;;;;5.78;0.77;;;;;;;30.25;39.59;99718.53;5003371;28;20042;-76
2023/08/07 10:39:33;;;;;;;0.90;0.85;;;;;;;31.05;38.69;99784.16;5006495;28;20034;-75
2023/08/07 10:41:59;;;;;;;0.80;0.60;;;;;;;31.27;38.44;99779.38;5007647;28;20029;-76
2023/08/07 10:44:26;;;;;;;1.35;0.30;;;;;;;31.31;38.29;99799.78;5004144;28;20406;-76
2023/08/07 10:46:53;;;;;;;0.55;0.40;;;;;;;31.17;38.33;99714.34;4995629;28;20481;-76
2023/08/07 10:49:35;;;;;;;1.17;0.65;;;;;;;32.43;36.86;99791.41;5004436;28;20048;-76
2023/08/07 10:52:09;;;;;;;0.30;0.30;;;;;;;32.40;37.98;99748.25;5004968;28;20562;-75
2023/08/07 10:54:46;;;;;;;3.78;1.05;;;;;;;32.76;37.86;99787.13;5007617;28;20451;-77
2023/08/07 10:57:13;;;;;;;0.30;0.20;;;;;;;31.96;38.03;99788.94;5006950;28;20557;-76
2023/08/07 11:00:05;;;;;;;2.03;0.68;;;;;;;32.23;37.93;99713.84;5007570;28;20354;-77
2023/08/07 11:02:33;;;;;;;0.43;0.32;;;;;;;32.00;38.18;99784.88;5007555;28;20038;-76
2023/08/07 11:04:59;;;;;;;1.40;0.50;;;;;;;32.27;37.83;99800.25;5002461;28;20042;-76
2023/08/07 11:07:25;;;;;;;0.65;0.30;;;;;;;31.53;38.85;99791.25;4999756;28;20107;-77
2023/08/07 11:09:51;;;;;;;1.02;0.47;;;;;;;30.94;38.39;99715.75;5007279;28;20052;-76
2023/08/07 11:12:16;;;;;;;0.70;0.50;;;;;;;31.11;39.20;99737.47;5007324;28;20041;-76
2023/08/07 11:14:41;;;;;;;0.20;0.20;;;;;;;30.86;39.23;99774.22;5006296;28;20025;-75
2023/08/07 11:17:08;;;;;;;0.55;0.50;;;;;;;30.92;38.62;99713.16;5006704;28;20038;-76
2023/08/07 11:19:33;;;;;;;0.68;0.30;;;;;;;30.97;40.03;99781.31;5002027;28;20041;-77
2023/08/07 11:21:59;;;;;;;0.30;0.30;;;;;;;31.24;39.13;99753.41;5006137;28;20557;-77
2023/08/07 11:24:27;;;;;;;0.40;0.35;;;;;;;31.50;38.83;99748.19;5001120;28;20037;-76
2023/08/07 11:26:55;;;;;;;0.45;0.20;;;;;;;30.95;38.77;99703.88;5005339;28;20034;-75